createdAt,value
2023-02-03T00:02:13.689Z,48.80
2023-02-03T00:05:15.127Z,48.80
2023-02-03T00:08:17.053Z,49.00
2023-02-03T00:11:18.299Z,48.20
2023-02-03T00:14:19.662Z,48.80
2023-02-03T00:17:21.445Z,49.00
2023-02-03T00:20:22.941Z,48.90
2023-02-03T00:23:25.110Z,48.70
2023-02-03T00:26:27.821Z,48.80
2023-02-03T00:29:29.106Z,48.80
2023-02-03T00:32:31.029Z,48.80
2023-02-03T00:35:32.436Z,49.00
2023-02-03T00:38:33.754Z,48.80
2023-02-03T00:41:34.995Z,49.10
2023-02-03T00:44:36.325Z,48.80
2023-02-03T00:47:38.150Z,49.00
2023-02-03T00:50:39.405Z,48.90
2023-02-03T00:53:40.689Z,48.80
2023-02-03T00:56:42.093Z,48.90
2023-02-03T00:59:43.453Z,48.90
2023-02-03T01:02:45.401Z,49.00
2023-02-03T01:05:48.275Z,49.00
2023-02-03T01:08:49.517Z,48.90
2023-02-03T01:11:50.845Z,48.40
2023-02-03T01:14:52.242Z,48.80
2023-02-03T01:17:54.032Z,48.90
2023-02-03T01:20:55.274Z,48.20
2023-02-03T01:23:58.091Z,49.30
2023-02-03T01:26:59.347Z,49.00
2023-02-03T01:30:02.889Z,48.80
2023-02-03T01:33:04.815Z,48.70
2023-02-03T01:36:07.855Z,49.40
2023-02-03T01:39:09.253Z,48.60
2023-02-03T01:42:12.273Z,49.40
2023-02-03T01:45:13.790Z,48.60
2023-02-03T01:48:15.679Z,49.00
2023-02-03T01:51:16.965Z,48.90
2023-02-03T01:54:20.292Z,49.10
2023-02-03T01:57:24.084Z,48.70
2023-02-03T02:00:26.820Z,48.80
2023-02-03T02:03:32.518Z,48.90
2023-02-03T02:06:33.839Z,49.10
2023-02-03T02:09:35.382Z,48.80
2023-02-03T02:12:36.767Z,49.00
2023-02-03T02:15:43.738Z,49.50
2023-02-03T02:18:50.748Z,49.20
2023-02-03T02:21:56.917Z,49.40
2023-02-03T02:25:05.057Z,49.20
2023-02-03T02:28:16.543Z,49.20
2023-02-03T02:31:33.151Z,49.30
2023-02-03T02:34:45.090Z,49.20
2023-02-03T02:37:49.296Z,49.80
2023-02-03T02:40:53.564Z,49.30
2023-02-03T02:43:58.261Z,49.20
2023-02-03T02:47:02.870Z,49.20
2023-02-03T02:50:07.109Z,49.20
2023-02-03T02:53:09.498Z,49.30
2023-02-03T02:56:15.308Z,49.20
2023-02-03T02:59:16.838Z,49.30
2023-02-03T03:02:19.042Z,49.40
2023-02-03T03:05:20.510Z,49.20
2023-02-03T03:08:26.708Z,49.70
2023-02-03T03:11:29.534Z,48.90
2023-02-03T03:14:33.166Z,49.20
2023-02-03T03:17:39.942Z,49.20
2023-02-03T03:20:43.456Z,49.60
2023-02-03T03:23:46.236Z,49.50
2023-02-03T03:26:51.970Z,49.30
2023-02-03T03:29:54.823Z,49.30
2023-02-03T03:32:57.751Z,49.20
2023-02-03T03:36:02.666Z,49.30
2023-02-03T03:39:09.150Z,49.60
2023-02-03T03:42:17.038Z,49.20
2023-02-03T03:45:21.298Z,49.20
2023-02-03T03:48:26.590Z,49.30
2023-02-03T03:51:30.048Z,49.40
2023-02-03T03:54:31.949Z,49.30
2023-02-03T03:57:35.049Z,49.30
2023-02-03T04:00:38.111Z,49.50
2023-02-03T04:03:43.604Z,49.30
2023-02-03T04:06:44.833Z,49.90
2023-02-03T04:09:46.223Z,49.00
2023-02-03T04:12:47.545Z,49.50
2023-02-03T04:15:48.796Z,49.70
2023-02-03T04:18:50.600Z,49.50
2023-02-03T04:21:51.897Z,49.50
2023-02-03T04:24:53.172Z,49.50
2023-02-03T04:27:54.625Z,49.70
2023-02-03T04:30:59.424Z,49.40
2023-02-03T04:34:02.455Z,49.20
2023-02-03T04:37:03.759Z,49.40
2023-02-03T04:40:05.539Z,49.40
2023-02-03T04:43:07.206Z,49.30
2023-02-03T04:46:09.577Z,49.60
2023-02-03T04:49:11.472Z,49.50
2023-02-03T04:52:12.772Z,49.50
2023-02-03T04:55:14.130Z,49.40
2023-02-03T04:58:15.381Z,49.50
2023-02-03T05:01:16.790Z,49.30
2023-02-03T05:04:18.981Z,49.30
2023-02-03T05:07:20.287Z,49.90
2023-02-03T05:10:21.589Z,48.80
2023-02-03T05:13:22.863Z,49.30
2023-02-03T05:16:24.461Z,49.50
2023-02-03T05:19:27.337Z,49.30
2023-02-03T05:22:28.583Z,49.50
2023-02-03T05:25:30.371Z,49.80
2023-02-03T05:28:31.661Z,49.40
2023-02-03T05:31:33.908Z,49.20
2023-02-03T05:34:35.912Z,49.40
2023-02-03T05:37:37.184Z,49.30
2023-02-03T05:40:53.276Z,49.00
2023-02-03T05:43:54.567Z,49.10
2023-02-03T05:46:56.743Z,49.30
2023-02-03T05:49:58.589Z,49.20
2023-02-03T05:53:00.059Z,49.00
2023-02-03T05:56:01.296Z,49.20
2023-02-03T05:59:02.649Z,49.00
2023-02-03T06:02:03.897Z,48.80
2023-02-03T06:05:06.598Z,48.90
2023-02-03T06:08:08.289Z,48.90
2023-02-03T06:11:09.746Z,48.00
2023-02-03T06:14:10.972Z,48.00
2023-02-03T06:17:12.201Z,48.60
2023-02-03T06:20:15.109Z,48.90
2023-02-03T06:23:18.153Z,48.60
2023-02-03T06:26:19.420Z,48.50
2023-02-03T06:29:20.755Z,48.70
2023-02-03T06:32:22.034Z,48.90
2023-02-03T06:35:23.940Z,48.60
2023-02-03T06:38:25.457Z,48.60
2023-02-03T06:41:29.746Z,48.20
2023-02-03T06:44:30.970Z,48.90
2023-02-03T06:47:33.207Z,48.80
2023-02-03T06:50:35.226Z,48.60
2023-02-03T06:53:36.594Z,48.40
2023-02-03T06:56:39.012Z,49.00
2023-02-03T06:59:40.343Z,48.40
2023-02-03T07:02:41.865Z,48.50
2023-02-03T07:05:43.787Z,48.40
2023-02-03T07:08:45.026Z,48.40
2023-02-03T07:11:46.460Z,47.80
2023-02-03T07:14:47.689Z,48.80
2023-02-03T07:17:53.569Z,48.10
2023-02-03T07:20:55.357Z,48.30
2023-02-03T07:23:56.619Z,48.40
2023-02-03T07:26:57.973Z,48.60
2023-02-03T07:29:59.235Z,47.50
2023-02-03T07:33:00.665Z,48.40
2023-02-03T07:36:02.982Z,47.70
2023-02-03T07:39:04.318Z,48.50
2023-02-03T07:42:05.736Z,47.80
2023-02-03T07:45:12.664Z,48.30
2023-02-03T07:48:14.006Z,47.80
2023-02-03T07:51:15.880Z,48.10
2023-02-03T07:54:17.245Z,47.70
2023-02-03T07:57:18.499Z,48.10
2023-02-03T08:00:20.039Z,48.00
2023-02-03T08:03:21.348Z,47.80
2023-02-03T08:06:23.307Z,47.40
2023-02-03T08:09:24.573Z,48.00
2023-02-03T08:12:26.058Z,47.20
2023-02-03T08:15:27.342Z,48.00
2023-02-03T08:18:30.918Z,47.70
2023-02-03T08:21:34.209Z,49.00
2023-02-03T08:24:36.458Z,47.70
2023-02-03T08:27:38.218Z,48.10
2023-02-03T08:30:39.484Z,47.70
2023-02-03T08:33:40.793Z,48.20
2023-02-03T08:36:43.713Z,48.40
2023-02-03T08:39:45.001Z,47.70
2023-02-03T08:42:46.429Z,47.60
2023-02-03T08:45:47.746Z,48.10
2023-02-03T08:48:49.238Z,47.70
2023-02-03T08:51:51.637Z,47.20
2023-02-03T08:54:52.867Z,47.60
2023-02-03T08:57:54.133Z,48.10
2023-02-03T09:00:55.418Z,47.20
2023-02-03T09:03:56.824Z,48.00
2023-02-03T09:06:59.619Z,47.50
2023-02-03T09:10:01.077Z,47.00
2023-02-03T09:13:02.426Z,47.60
2023-02-03T09:16:04.369Z,47.80
2023-02-03T09:19:05.868Z,47.40
2023-02-03T09:22:08.843Z,47.90
2023-02-03T09:25:10.262Z,47.60
2023-02-03T09:28:11.575Z,48.00
2023-02-03T09:31:14.376Z,47.40
2023-02-03T09:34:15.846Z,47.80
2023-02-03T09:37:17.932Z,47.00
2023-02-03T09:40:21.736Z,47.50
2023-02-03T09:43:30.394Z,47.30
2023-02-03T09:46:33.403Z,47.90
2023-02-03T09:49:37.688Z,47.40
2023-02-03T09:52:40.845Z,47.60
2023-02-03T09:55:43.549Z,47.50
2023-02-03T09:58:44.839Z,47.50
2023-02-03T10:01:50.226Z,47.20
2023-02-03T10:04:55.087Z,47.80
2023-02-03T10:08:01.420Z,47.30
2023-02-03T10:11:11.036Z,47.00
2023-02-03T10:14:19.081Z,47.60
2023-02-03T10:17:28.333Z,47.90
2023-02-03T10:20:34.999Z,47.40
2023-02-03T10:23:38.449Z,47.70
2023-02-03T10:26:40.398Z,47.40
2023-02-03T10:29:42.318Z,47.80
2023-02-03T10:32:44.128Z,47.40
2023-02-03T10:35:49.066Z,47.90
2023-02-03T10:38:59.331Z,47.60
2023-02-03T10:42:02.043Z,47.90
2023-02-03T10:45:03.931Z,47.70
2023-02-03T10:48:09.180Z,47.70
2023-02-03T10:51:14.859Z,47.30
2023-02-03T10:54:31.372Z,47.40
2023-02-03T10:57:35.814Z,47.50
2023-02-03T11:00:37.046Z,47.40
2023-02-03T11:03:40.663Z,47.70
2023-02-03T11:06:52.835Z,47.80
2023-02-03T11:09:54.287Z,46.80
2023-02-03T11:13:10.175Z,47.80
2023-02-03T11:16:13.263Z,47.60
2023-02-03T11:19:16.802Z,47.70
2023-02-03T11:22:26.645Z,47.60
2023-02-03T11:25:31.748Z,47.60
2023-02-03T11:28:35.288Z,47.30
2023-02-03T11:31:36.919Z,48.00
2023-02-03T11:34:38.751Z,47.30
2023-02-03T11:37:41.195Z,47.70
2023-02-03T11:40:42.529Z,47.50
2023-02-03T11:43:44.565Z,48.00
2023-02-03T11:46:47.922Z,47.50
2023-02-03T11:49:58.316Z,47.70
2023-02-03T11:53:05.959Z,47.50
2023-02-03T11:56:13.425Z,47.70
2023-02-03T11:59:27.716Z,47.30
2023-02-03T12:02:38.264Z,47.80
2023-02-03T12:05:46.513Z,47.30
2023-02-03T12:09:02.744Z,47.30
2023-02-03T12:12:15.790Z,47.10
2023-02-03T12:15:31.903Z,47.40
2023-02-03T12:18:40.462Z,47.70
2023-02-03T12:21:43.522Z,47.90
2023-02-03T12:24:52.981Z,47.40
2023-02-03T12:27:59.523Z,47.70
2023-02-03T12:31:03.865Z,47.50
2023-02-03T12:34:11.880Z,48.10
2023-02-03T12:37:15.917Z,47.60
2023-02-03T12:40:20.889Z,47.90
2023-02-03T12:43:26.150Z,47.60
2023-02-03T12:46:29.907Z,48.00
2023-02-03T12:49:34.869Z,47.70
2023-02-03T12:52:39.036Z,47.50
2023-02-03T12:55:42.492Z,47.90
2023-02-03T12:58:45.328Z,47.80
2023-02-03T13:01:48.898Z,47.80
2023-02-03T13:04:54.306Z,48.10
2023-02-03T13:07:59.131Z,47.80
2023-02-03T13:11:09.025Z,47.10
2023-02-03T13:14:15.072Z,48.10
2023-02-03T13:17:17.892Z,47.80
2023-02-03T13:20:21.048Z,47.70
2023-02-03T13:23:22.701Z,48.20
2023-02-03T13:26:35.744Z,47.90
2023-02-03T13:29:51.876Z,48.40
2023-02-03T13:33:03.791Z,47.80
2023-02-03T13:36:11.439Z,48.20
2023-02-03T13:39:24.230Z,48.00
2023-02-03T13:42:26.805Z,48.20
2023-02-03T13:45:29.817Z,47.70
2023-02-03T13:48:32.412Z,48.30
2023-02-03T13:51:35.772Z,47.70
2023-02-03T13:54:38.325Z,47.80
2023-02-03T13:57:39.695Z,47.70
2023-02-03T14:00:55.775Z,48.40
2023-02-03T14:03:57.326Z,48.10
2023-02-03T14:07:00.996Z,48.30
2023-02-03T14:10:12.995Z,47.40
2023-02-03T14:13:19.839Z,48.10
2023-02-03T14:16:23.162Z,48.00
2023-02-03T14:19:39.391Z,48.20
2023-02-03T14:22:41.505Z,47.80
2023-02-03T14:25:43.862Z,48.50
2023-02-03T14:28:45.724Z,48.10
2023-02-03T14:31:56.047Z,48.20
2023-02-03T14:34:57.354Z,47.90
2023-02-03T14:38:01.043Z,48.50
2023-02-03T14:41:03.805Z,48.30
2023-02-03T14:44:10.048Z,48.10
2023-02-03T14:47:17.253Z,48.10
2023-02-03T14:50:25.842Z,48.20
2023-02-03T14:53:34.226Z,47.90
2023-02-03T14:56:56.244Z,48.40
2023-02-03T15:00:00.454Z,48.10
2023-02-03T15:03:18.974Z,48.40
2023-02-03T15:06:29.679Z,48.30
2023-02-03T15:14:18.934Z,44.80
2023-02-03T15:17:23.679Z,48.00
2023-02-03T15:20:27.070Z,48.40
2023-02-03T15:23:29.213Z,47.90
2023-02-03T15:26:32.306Z,48.30
2023-02-03T15:29:35.347Z,48.30
2023-02-03T15:32:39.313Z,48.20
2023-02-03T15:35:41.430Z,48.10
2023-02-03T15:38:45.610Z,48.50
2023-02-03T15:41:49.486Z,48.00
2023-02-03T15:44:53.880Z,48.10
2023-02-03T15:47:57.487Z,48.00
2023-02-03T15:51:03.740Z,48.50
2023-02-03T15:54:09.407Z,48.20
2023-02-03T15:57:15.874Z,48.50
2023-02-03T16:00:26.725Z,48.10
2023-02-03T16:03:40.137Z,48.10
2023-02-03T16:06:44.493Z,48.30
2023-02-03T16:09:45.864Z,46.10
2023-02-03T16:12:47.252Z,48.30
2023-02-03T16:16:04.581Z,48.50
2023-02-03T16:19:12.041Z,47.90
2023-02-03T16:22:25.805Z,48.30
2023-02-03T16:25:28.998Z,47.90
2023-02-03T16:28:45.435Z,48.10
2023-02-03T16:32:01.491Z,47.60
2023-02-03T16:35:15.539Z,48.50
2023-02-03T16:38:32.269Z,48.10
2023-02-03T16:41:45.514Z,48.20
2023-02-03T16:45:01.469Z,48.20
2023-02-03T16:48:15.527Z,48.40
2023-02-03T16:51:17.559Z,48.00
2023-02-03T16:54:18.857Z,48.40
2023-02-03T16:57:20.134Z,48.30
2023-02-03T17:00:22.214Z,48.30
2023-02-03T17:03:24.216Z,48.30
2023-02-03T17:06:26.098Z,48.70
2023-02-03T17:09:27.322Z,48.40
2023-02-03T17:12:29.995Z,48.00
2023-02-03T17:15:32.704Z,48.20
2023-02-03T17:18:34.117Z,48.90
2023-02-03T17:21:36.224Z,48.60
2023-02-03T17:24:37.502Z,48.90
2023-02-03T17:27:38.908Z,48.50
2023-02-03T17:30:40.350Z,48.60
2023-02-03T17:33:41.740Z,48.50
2023-02-03T17:36:43.594Z,48.90
2023-02-03T17:55:56.497Z,48.70
2023-02-03T17:58:58.730Z,48.50
2023-02-03T18:02:00.209Z,48.70
2023-02-03T18:05:02.217Z,48.50
2023-02-03T18:08:12.336Z,49.20
2023-02-03T18:11:18.342Z,48.00
2023-02-03T18:14:19.686Z,49.00
2023-02-03T18:17:20.936Z,48.60
2023-02-03T18:20:22.212Z,49.40
2023-02-03T18:23:24.247Z,48.40
2023-02-03T18:26:27.827Z,49.20
2023-02-03T18:29:29.037Z,48.70
2023-02-03T18:32:30.681Z,49.50
2023-02-03T18:35:32.245Z,48.60
2023-02-03T18:38:34.765Z,49.00
2023-02-03T18:41:37.477Z,48.90
2023-02-03T18:44:40.453Z,49.20
2023-02-03T18:47:41.703Z,49.10
2023-02-03T18:50:43.517Z,49.10
2023-02-03T18:53:45.969Z,48.90
2023-02-03T18:56:47.424Z,49.40
2023-02-03T18:59:48.682Z,48.90
2023-02-03T19:02:50.338Z,49.60
2023-02-03T19:05:53.420Z,49.00
2023-02-03T19:08:55.609Z,49.60
2023-02-03T19:11:58.044Z,48.60
2023-02-03T19:14:59.389Z,49.40
2023-02-03T19:18:00.616Z,48.70
2023-02-03T19:21:01.907Z,49.60
2023-02-03T19:24:03.994Z,49.00
2023-02-03T19:27:05.435Z,49.30
2023-02-03T19:30:07.285Z,48.90
2023-02-03T19:33:08.738Z,49.10
2023-02-03T19:36:10.736Z,49.20
2023-02-03T19:39:12.647Z,49.60
2023-02-03T19:42:14.017Z,49.30
2023-02-03T19:45:15.346Z,49.50
2023-02-03T19:48:16.592Z,48.90
2023-02-03T19:51:17.949Z,49.70
2023-02-03T19:54:19.915Z,49.60
2023-02-03T19:57:21.212Z,49.20
2023-02-03T20:00:23.551Z,49.00
2023-02-03T20:03:24.885Z,49.50
2023-02-03T20:06:26.557Z,49.30
2023-02-03T20:09:28.514Z,49.60
2023-02-03T20:12:31.032Z,48.80
2023-02-03T20:15:32.251Z,49.40
2023-02-03T20:18:33.501Z,49.30
2023-02-03T20:21:34.930Z,49.80
2023-02-03T20:24:36.833Z,49.10
2023-02-03T20:27:38.116Z,49.60
2023-02-03T20:30:40.073Z,49.00
2023-02-03T20:33:41.410Z,49.40
2023-02-03T20:36:42.779Z,49.40
2023-02-03T20:39:44.616Z,49.60
2023-02-03T20:42:46.602Z,49.30
2023-02-03T20:45:48.754Z,49.30
2023-02-03T20:48:50.116Z,49.30
2023-02-03T20:51:51.477Z,49.10
2023-02-03T20:54:53.399Z,49.50
2023-02-03T20:57:56.040Z,49.40
2023-02-03T21:00:57.737Z,49.50
2023-02-03T21:04:13.916Z,49.60
2023-02-03T21:07:17.228Z,48.90
2023-02-03T21:10:20.367Z,50.00
2023-02-03T21:13:22.541Z,49.50
2023-02-03T21:16:26.728Z,49.40
2023-02-03T21:19:28.951Z,49.30
2023-02-03T21:22:31.640Z,49.30
2023-02-03T21:25:33.692Z,49.30
2023-02-03T21:28:34.927Z,50.00
2023-02-03T21:31:36.522Z,49.40
2023-02-03T21:34:41.482Z,49.40
2023-02-03T21:37:42.974Z,49.40
2023-02-03T21:40:44.794Z,50.00
2023-02-03T21:43:47.335Z,49.60
2023-02-03T21:46:48.571Z,50.60
2023-02-03T21:49:49.869Z,49.60
2023-02-03T21:52:51.348Z,50.20
2023-02-03T21:55:53.716Z,49.50
2023-02-03T21:58:58.088Z,49.50
2023-02-03T22:01:59.997Z,49.60
2023-02-03T22:05:02.236Z,50.10
2023-02-03T22:08:06.046Z,49.50
2023-02-03T22:11:08.291Z,49.00
2023-02-03T22:14:09.872Z,49.80
2023-02-03T22:17:14.054Z,49.60
2023-02-03T22:20:15.666Z,49.30
2023-02-03T22:23:16.945Z,49.90
2023-02-03T22:26:18.962Z,49.70
2023-02-03T22:29:22.278Z,50.20
2023-02-03T22:32:23.519Z,49.20
2023-02-03T22:35:25.226Z,49.70
2023-02-03T22:38:26.466Z,49.80
2023-02-03T22:41:28.280Z,49.70
2023-02-03T22:44:29.539Z,49.90
2023-02-03T22:47:31.775Z,50.20
2023-02-03T22:50:36.324Z,49.80
2023-02-03T22:53:38.984Z,49.80
2023-02-03T22:56:40.953Z,49.70
2023-02-03T22:59:42.228Z,49.70
2023-02-03T23:02:43.537Z,49.80
2023-02-03T23:05:44.875Z,50.20
2023-02-03T23:08:46.131Z,49.70
2023-02-03T23:11:47.956Z,49.20
2023-02-03T23:14:49.718Z,49.80
2023-02-03T23:17:50.995Z,50.10
2023-02-03T23:20:52.306Z,49.80
2023-02-03T23:23:53.572Z,49.90
2023-02-03T23:26:55.554Z,49.80
2023-02-03T23:29:56.785Z,49.50
2023-02-03T23:32:58.004Z,49.60
2023-02-03T23:35:59.153Z,49.40
2023-02-03T23:39:00.415Z,49.30
2023-02-03T23:42:02.242Z,49.50
2023-02-03T23:45:07.124Z,49.60
2023-02-03T23:48:08.553Z,49.70
2023-02-03T23:51:09.811Z,49.60
2023-02-03T23:54:11.150Z,49.30
2023-02-03T23:57:13.157Z,49.40
